createdAt,value
2018-10-06T00:01:33.113Z,9.07
2018-10-06T00:04:01.248Z,8.33
2018-10-06T00:06:29.575Z,8.17
2018-10-06T00:08:57.742Z,8.63
2018-10-06T00:11:25.947Z,8.50
2018-10-06T00:13:54.104Z,8.43
2018-10-06T00:16:22.232Z,8.60
2018-10-06T00:18:50.416Z,7.57
2018-10-06T00:21:18.590Z,7.90
2018-10-06T00:23:46.733Z,8.13
2018-10-06T00:26:14.927Z,9.07
2018-10-06T00:28:44.799Z,7.87
2018-10-06T00:31:12.972Z,8.53
2018-10-06T00:33:41.125Z,7.30
2018-10-06T00:36:09.284Z,9.30
2018-10-06T00:38:37.473Z,9.67
2018-10-06T00:41:05.870Z,8.53
2018-10-06T00:43:34.011Z,7.97
2018-10-06T00:46:02.178Z,8.53
2018-10-06T00:48:30.369Z,8.33
2018-10-06T00:50:58.509Z,8.50
2018-10-06T00:53:26.804Z,8.17
2018-10-06T00:55:54.993Z,8.13
2018-10-06T00:58:23.205Z,9.13
2018-10-06T01:00:51.389Z,8.30
2018-10-06T01:03:19.653Z,8.30
2018-10-06T01:05:47.830Z,9.60
2018-10-06T01:08:16.077Z,7.80
2018-10-06T01:10:44.215Z,7.73
2018-10-06T01:13:12.417Z,9.13
2018-10-06T01:15:40.635Z,10.70
2018-10-06T01:18:08.862Z,8.43
2018-10-06T01:20:37.035Z,9.03
2018-10-06T01:23:05.241Z,8.40
2018-10-06T01:25:33.404Z,8.70
2018-10-06T01:28:01.914Z,8.60
2018-10-06T01:30:30.067Z,8.50
2018-10-06T01:32:58.249Z,8.60
2018-10-06T01:35:26.447Z,8.17
2018-10-06T01:37:54.643Z,8.50
2018-10-06T01:40:22.936Z,9.03
2018-10-06T01:42:51.113Z,9.13
2018-10-06T01:45:19.334Z,9.03
2018-10-06T01:47:47.562Z,9.40
2018-10-06T01:50:15.769Z,9.83
2018-10-06T01:52:44.393Z,8.50
2018-10-06T01:55:12.561Z,8.03
2018-10-06T01:57:40.778Z,8.07
2018-10-06T02:00:09.566Z,8.87
2018-10-06T02:02:37.747Z,8.90
2018-10-06T02:05:06.165Z,8.57
2018-10-06T02:07:34.340Z,8.47
2018-10-06T02:10:02.534Z,8.63
2018-10-06T02:12:30.669Z,9.20
2018-10-06T02:14:58.852Z,9.07
2018-10-06T02:17:26.988Z,8.80
2018-10-06T02:19:55.199Z,9.10
2018-10-06T02:22:23.325Z,8.77
2018-10-06T02:24:51.515Z,8.43
2018-10-06T02:27:19.736Z,9.17
2018-10-06T02:29:49.210Z,9.17
2018-10-06T02:32:17.429Z,9.40
2018-10-06T02:34:45.588Z,9.80
2018-10-06T02:37:13.703Z,7.87
2018-10-06T02:39:41.918Z,9.10
2018-10-06T02:42:10.048Z,8.77
2018-10-06T02:44:38.186Z,8.40
2018-10-06T02:47:06.354Z,9.20
2018-10-06T02:49:34.505Z,9.60
2018-10-06T02:52:02.683Z,9.73
2018-10-06T02:54:30.879Z,8.60
2018-10-06T02:56:59.021Z,8.70
2018-10-06T02:59:27.162Z,8.37
2018-10-06T03:01:56.859Z,8.60
2018-10-06T03:04:25.615Z,8.20
2018-10-06T03:06:53.770Z,8.67
2018-10-06T03:09:22.043Z,7.50
2018-10-06T03:11:50.221Z,8.83
2018-10-06T03:14:18.432Z,8.60
2018-10-06T03:16:46.601Z,9.73
2018-10-06T03:19:14.775Z,8.30
2018-10-06T03:21:42.937Z,9.43
2018-10-06T03:24:11.118Z,9.63
2018-10-06T03:26:39.302Z,7.60
2018-10-06T03:29:07.473Z,9.10
2018-10-06T03:31:35.613Z,8.33
2018-10-06T03:34:03.806Z,9.27
2018-10-06T03:36:31.984Z,9.07
2018-10-06T03:39:00.193Z,8.80
2018-10-06T03:41:28.364Z,9.20
2018-10-06T03:43:56.542Z,10.47
2018-10-06T03:46:24.726Z,9.17
2018-10-06T03:48:52.922Z,9.33
2018-10-06T03:51:21.102Z,8.80
2018-10-06T03:53:49.240Z,8.83
2018-10-06T03:56:17.376Z,9.33
2018-10-06T03:58:45.543Z,10.47
2018-10-06T04:01:13.721Z,9.27
2018-10-06T04:03:41.976Z,9.17
2018-10-06T04:06:10.102Z,9.20
2018-10-06T04:08:38.276Z,9.77
2018-10-06T04:11:06.467Z,9.63
2018-10-06T04:13:34.690Z,9.40
2018-10-06T04:16:02.837Z,8.50
2018-10-06T04:18:31.049Z,10.60
2018-10-06T04:20:59.180Z,9.63
2018-10-06T04:23:27.338Z,10.27
2018-10-06T04:25:55.612Z,9.83
2018-10-06T04:28:23.817Z,10.60
2018-10-06T04:30:52.996Z,9.73
2018-10-06T04:33:21.133Z,9.50
2018-10-06T04:35:49.354Z,8.67
2018-10-06T04:38:17.596Z,8.73
2018-10-06T04:40:45.728Z,9.13
2018-10-06T04:43:13.874Z,10.93
2018-10-06T04:45:42.234Z,8.70
2018-10-06T04:48:10.370Z,8.33
2018-10-06T04:50:38.496Z,8.83
2018-10-06T04:53:06.645Z,9.10
2018-10-06T04:55:34.790Z,8.53
2018-10-06T04:58:02.988Z,10.17
2018-10-06T05:00:31.210Z,9.53
2018-10-06T05:02:59.486Z,8.57
2018-10-06T05:05:27.658Z,10.03
2018-10-06T05:07:55.840Z,9.37
2018-10-06T05:10:24.120Z,9.50
2018-10-06T05:12:52.282Z,9.10
2018-10-06T05:15:20.446Z,8.80
2018-10-06T05:17:48.590Z,9.90
2018-10-06T05:20:16.763Z,10.30
2018-10-06T05:22:44.927Z,9.80
2018-10-06T05:25:13.097Z,10.07
2018-10-06T05:27:41.243Z,9.33
2018-10-06T05:30:09.446Z,9.67
2018-10-06T05:32:37.669Z,9.43
2018-10-06T05:35:06.036Z,10.13
2018-10-06T05:37:34.215Z,10.50
2018-10-06T05:40:02.447Z,10.67
2018-10-06T05:42:30.605Z,10.50
2018-10-06T05:44:58.830Z,10.70
2018-10-06T05:47:27.651Z,11.43
2018-10-06T05:49:56.078Z,10.00
2018-10-06T05:52:24.243Z,10.73
2018-10-06T05:54:52.464Z,11.30
2018-10-06T05:57:20.573Z,9.80
2018-10-06T05:59:48.776Z,10.40
2018-10-06T06:02:17.097Z,10.90
2018-10-06T06:04:45.352Z,11.67
2018-10-06T06:07:14.730Z,9.70
2018-10-06T06:09:43.886Z,10.00
2018-10-06T06:12:12.579Z,10.53
2018-10-06T06:14:41.113Z,10.50
2018-10-06T06:17:09.258Z,10.13
2018-10-06T06:19:38.940Z,10.83
2018-10-06T06:22:07.163Z,10.20
2018-10-06T06:24:35.416Z,10.03
2018-10-06T06:27:03.719Z,11.93
2018-10-06T06:29:31.894Z,9.40
2018-10-06T06:32:00.104Z,9.57
2018-10-06T06:34:28.476Z,9.00
2018-10-06T06:36:56.685Z,10.70
2018-10-06T06:39:24.870Z,9.90
2018-10-06T06:41:53.037Z,10.77
2018-10-06T06:44:21.251Z,9.93
2018-10-06T06:46:50.135Z,9.53
2018-10-06T06:49:18.302Z,10.10
2018-10-06T06:51:46.422Z,9.13
2018-10-06T06:54:14.662Z,9.40
2018-10-06T06:56:44.874Z,8.60
2018-10-06T06:59:13.037Z,9.13
2018-10-06T07:01:41.238Z,9.70
2018-10-06T07:04:09.407Z,10.60
2018-10-06T07:06:37.684Z,8.23
2018-10-06T07:09:06.759Z,9.43
2018-10-06T07:11:35.005Z,9.23
2018-10-06T07:14:03.416Z,8.10
2018-10-06T07:16:31.662Z,8.37
2018-10-06T07:19:00.030Z,7.60
2018-10-06T07:21:28.236Z,8.30
2018-10-06T07:23:56.842Z,7.93
2018-10-06T07:26:25.263Z,8.67
2018-10-06T07:28:54.578Z,8.10
2018-10-06T07:31:22.766Z,8.43
2018-10-06T07:33:52.272Z,8.20
2018-10-06T07:36:20.487Z,7.90
2018-10-06T07:38:48.692Z,7.60
2018-10-06T07:41:16.882Z,9.10
2018-10-06T07:43:45.106Z,8.40
2018-10-06T07:46:13.324Z,8.93
2018-10-06T07:48:41.493Z,7.90
2018-10-06T07:51:09.752Z,8.27
2018-10-06T07:53:38.056Z,8.30
2018-10-06T07:56:06.486Z,7.90
2018-10-06T07:58:34.710Z,7.20
2018-10-06T08:01:02.947Z,7.60
2018-10-06T08:03:31.098Z,8.20
2018-10-06T08:05:59.264Z,7.10
2018-10-06T08:08:27.439Z,7.90
2018-10-06T08:10:55.624Z,7.27
2018-10-06T08:13:24.908Z,7.43
2018-10-06T08:15:53.406Z,6.70
2018-10-06T08:18:21.913Z,6.70
2018-10-06T08:20:51.376Z,6.40
2018-10-06T08:23:26.366Z,6.93
2018-10-06T08:25:54.573Z,6.53
2018-10-06T08:28:22.884Z,6.50
2018-10-06T08:30:51.108Z,6.37
2018-10-06T08:33:19.295Z,6.77
2018-10-06T08:35:47.457Z,7.90
2018-10-06T08:38:15.779Z,6.93
2018-10-06T08:40:44.042Z,7.20
2018-10-06T08:43:12.224Z,7.20
2018-10-06T08:45:40.415Z,6.40
2018-10-06T08:48:08.610Z,5.80
2018-10-06T08:50:37.719Z,6.80
2018-10-06T08:53:05.909Z,6.40
2018-10-06T08:55:34.105Z,6.80
2018-10-06T08:58:02.329Z,6.80
2018-10-06T09:00:30.516Z,7.83
2018-10-06T09:02:58.744Z,7.00
2018-10-06T09:05:26.976Z,6.43
2018-10-06T09:07:55.192Z,7.10
2018-10-06T09:10:23.335Z,6.57
2018-10-06T09:12:51.562Z,6.73
2018-10-06T09:15:20.392Z,6.53
2018-10-06T09:17:48.676Z,6.17
2018-10-06T09:20:17.254Z,6.10
2018-10-06T09:22:45.435Z,6.10
2018-10-06T09:25:14.075Z,6.87
2018-10-06T09:27:42.550Z,5.33
2018-10-06T09:30:11.228Z,5.93
2018-10-06T09:32:39.393Z,5.90
2018-10-06T09:35:07.604Z,7.87
2018-10-06T09:37:35.871Z,7.60
2018-10-06T09:40:04.139Z,6.00
2018-10-06T09:42:32.555Z,6.37
2018-10-06T09:45:00.821Z,6.47
2018-10-06T09:47:29.022Z,6.30
2018-10-06T09:49:57.205Z,5.80
2018-10-06T09:52:26.453Z,6.80
2018-10-06T09:54:54.730Z,6.23
2018-10-06T09:57:23.009Z,6.00
2018-10-06T09:59:51.803Z,6.53
2018-10-06T10:02:25.461Z,5.57
2018-10-06T10:04:57.989Z,5.30
2018-10-06T10:07:26.188Z,6.30
2018-10-06T10:09:56.776Z,5.53
2018-10-06T10:12:25.219Z,6.73
2018-10-06T10:14:53.440Z,5.80
2018-10-06T10:17:21.885Z,5.43
2018-10-06T10:19:50.209Z,6.07
2018-10-06T10:22:18.556Z,6.10
2018-10-06T10:24:46.707Z,5.40
2018-10-06T10:27:14.953Z,6.60
2018-10-06T10:29:43.200Z,5.97
2018-10-06T10:32:11.635Z,6.13
2018-10-06T10:34:39.894Z,5.63
2018-10-06T10:37:08.192Z,5.20
2018-10-06T10:39:36.505Z,6.00
2018-10-06T10:42:04.672Z,5.47
2018-10-06T10:44:32.955Z,4.90
2018-10-06T10:47:01.142Z,8.27
2018-10-06T10:49:29.586Z,6.30
2018-10-06T10:51:57.745Z,5.50
2018-10-06T10:54:26.054Z,6.20
2018-10-06T10:56:54.312Z,5.80
2018-10-06T10:59:22.564Z,4.43
2018-10-06T11:01:50.758Z,5.17
2018-10-06T11:04:18.990Z,5.40
2018-10-06T11:06:47.561Z,5.80
2018-10-06T11:09:15.877Z,5.50
2018-10-06T11:11:44.507Z,5.07
2018-10-06T11:14:12.674Z,5.17
2018-10-06T11:16:41.141Z,4.77
2018-10-06T11:19:09.369Z,5.17
2018-10-06T11:21:37.592Z,5.27
2018-10-06T11:24:05.857Z,6.17
2018-10-06T11:26:34.797Z,4.57
2018-10-06T11:29:03.015Z,5.13
2018-10-06T11:31:31.221Z,5.57
2018-10-06T11:33:59.397Z,5.87
2018-10-06T11:36:27.715Z,5.90
2018-10-06T11:38:55.867Z,4.60
2018-10-06T11:41:24.763Z,5.30
2018-10-06T11:43:52.951Z,5.13
2018-10-06T11:46:21.294Z,5.30
2018-10-06T11:48:49.581Z,5.73
2018-10-06T11:51:17.860Z,6.97
2018-10-06T11:53:46.065Z,5.57
2018-10-06T11:56:14.323Z,5.53
2018-10-06T11:58:42.478Z,5.73
2018-10-06T12:01:10.757Z,5.60
2018-10-06T12:03:38.940Z,5.33
2018-10-06T12:06:07.117Z,4.97
2018-10-06T12:08:35.310Z,5.60
2018-10-06T12:11:03.479Z,5.10
2018-10-06T12:13:31.666Z,4.67
2018-10-06T12:16:00.769Z,4.70
2018-10-06T12:18:29.052Z,5.80
2018-10-06T12:20:57.252Z,5.40
2018-10-06T12:23:25.427Z,5.50
2018-10-06T12:25:53.721Z,4.63
2018-10-06T12:28:21.825Z,6.83
2018-10-06T12:30:50.085Z,7.60
2018-10-06T12:33:18.963Z,5.50
2018-10-06T12:35:47.218Z,5.03
2018-10-06T12:38:15.300Z,5.53
2018-10-06T12:40:43.451Z,5.30
2018-10-06T12:43:11.622Z,4.80
2018-10-06T12:45:39.801Z,4.37
2018-10-06T12:48:07.976Z,5.40
2018-10-06T12:50:36.149Z,4.33
2018-10-06T12:53:04.293Z,5.63
2018-10-06T12:55:32.559Z,4.40
2018-10-06T12:58:00.702Z,5.10
2018-10-06T13:00:29.209Z,3.97
2018-10-06T13:02:57.597Z,5.33
2018-10-06T13:05:25.804Z,3.90
2018-10-06T13:07:53.955Z,4.73
2018-10-06T13:10:22.115Z,4.17
2018-10-06T13:12:50.408Z,4.67
2018-10-06T13:15:18.587Z,4.40
2018-10-06T13:17:47.290Z,3.80
2018-10-06T13:20:15.495Z,3.90
2018-10-06T13:22:43.700Z,3.63
2018-10-06T13:25:12.577Z,4.73
2018-10-06T13:27:41.521Z,4.07
2018-10-06T13:30:09.703Z,3.83
2018-10-06T13:32:37.986Z,3.70
2018-10-06T13:35:06.215Z,3.53
2018-10-06T13:37:34.534Z,4.10
2018-10-06T13:40:02.713Z,4.10
2018-10-06T13:42:30.875Z,4.20
2018-10-06T13:44:59.028Z,3.80
2018-10-06T13:47:27.243Z,5.07
2018-10-06T13:49:56.139Z,4.40
2018-10-06T13:52:24.428Z,5.23
2018-10-06T13:54:52.588Z,3.33
2018-10-06T13:57:21.090Z,3.27
2018-10-06T13:59:49.383Z,3.80
2018-10-06T14:02:17.663Z,3.77
2018-10-06T14:04:47.137Z,3.80
2018-10-06T14:07:15.371Z,4.37
2018-10-06T14:09:43.575Z,8.30
2018-10-06T14:12:12.761Z,5.20
2018-10-06T14:14:40.963Z,3.37
2018-10-06T14:17:09.149Z,4.27
2018-10-06T14:19:37.398Z,3.70
2018-10-06T14:22:05.647Z,3.80
2018-10-06T14:24:33.848Z,3.33
2018-10-06T14:27:02.101Z,2.90
2018-10-06T14:29:31.293Z,4.10
2018-10-06T14:31:59.465Z,4.27
2018-10-06T14:34:27.750Z,4.03
2018-10-06T14:36:55.941Z,5.60
2018-10-06T14:39:24.143Z,4.33
2018-10-06T14:41:52.323Z,4.00
2018-10-06T14:44:20.633Z,5.40
2018-10-06T14:46:48.754Z,9.60
2018-10-06T14:49:17.035Z,8.40
2018-10-06T14:51:46.085Z,9.50
2018-10-06T14:54:14.319Z,5.50
2018-10-06T14:56:42.806Z,12.03
2018-10-06T14:59:10.960Z,17.00
2018-10-06T15:01:39.103Z,7.57
2018-10-06T15:04:07.293Z,10.83
2018-10-06T15:06:35.435Z,36.93
2018-10-06T15:09:04.844Z,12.00
2018-10-06T15:11:32.972Z,13.33
2018-10-06T15:14:01.185Z,32.80
2018-10-06T15:16:29.343Z,12.10
2018-10-06T15:18:57.547Z,18.33
2018-10-06T15:21:25.813Z,28.93
2018-10-06T15:23:53.923Z,24.33
2018-10-06T15:26:22.091Z,14.10
2018-10-06T15:28:50.302Z,18.03
2018-10-06T15:31:18.459Z,12.40
2018-10-06T15:33:46.721Z,20.07
2018-10-06T15:36:14.915Z,14.20
2018-10-06T15:38:44.017Z,24.10
2018-10-06T15:41:12.207Z,21.30
2018-10-06T15:43:40.450Z,11.27
2018-10-06T15:46:08.591Z,9.23
2018-10-06T15:48:38.929Z,9.83
2018-10-06T15:51:07.191Z,8.57
2018-10-06T15:53:35.469Z,8.87
2018-10-06T15:56:03.665Z,8.07
2018-10-06T15:58:31.797Z,9.40
2018-10-06T16:01:00.075Z,9.70
2018-10-06T16:03:28.439Z,11.00
2018-10-06T16:05:56.726Z,14.67
2018-10-06T16:08:25.987Z,16.60
2018-10-06T16:10:54.164Z,11.63
2018-10-06T16:13:22.411Z,11.30
2018-10-06T16:15:51.132Z,12.30
2018-10-06T16:18:19.339Z,65.90
2018-10-06T16:20:47.543Z,25.70
2018-10-06T16:23:15.742Z,15.47
2018-10-06T16:25:43.976Z,18.30
2018-10-06T16:28:12.200Z,17.40
2018-10-06T16:30:40.397Z,15.77
2018-10-06T16:33:08.562Z,16.23
2018-10-06T16:35:36.747Z,16.20
2018-10-06T16:38:05.044Z,20.50
2018-10-06T16:40:33.885Z,17.37
2018-10-06T16:43:02.164Z,25.10
2018-10-06T16:45:30.312Z,24.53
2018-10-06T16:47:58.519Z,22.73
2018-10-06T16:50:26.671Z,23.10
2018-10-06T16:52:54.918Z,22.10
2018-10-06T16:55:23.165Z,21.63
2018-10-06T16:57:51.485Z,21.30
2018-10-06T17:00:19.700Z,19.30
2018-10-06T17:02:47.842Z,19.93
2018-10-06T17:05:15.974Z,20.20
2018-10-06T17:07:44.303Z,21.00
2018-10-06T17:10:12.500Z,19.97
2018-10-06T17:12:40.732Z,16.73
2018-10-06T17:15:09.346Z,12.67
2018-10-06T17:17:37.496Z,11.00
2018-10-06T17:20:06.012Z,11.43
2018-10-06T17:22:34.268Z,9.67
2018-10-06T17:25:03.762Z,14.20
2018-10-06T17:27:31.982Z,16.63
2018-10-06T17:30:00.225Z,18.03
2018-10-06T17:32:28.592Z,16.90
2018-10-06T17:34:56.788Z,13.20
2018-10-06T17:37:24.982Z,15.40
2018-10-06T17:39:53.203Z,9.00
2018-10-06T17:42:21.416Z,10.90
2018-10-06T17:44:49.704Z,17.50
2018-10-06T17:47:17.975Z,27.50
2018-10-06T17:49:46.576Z,25.20
2018-10-06T17:52:14.748Z,19.10
2018-10-06T17:54:42.985Z,16.87
2018-10-06T17:57:11.233Z,15.30
2018-10-06T17:59:39.956Z,17.53
2018-10-06T18:02:08.284Z,14.80
2018-10-06T18:04:36.546Z,15.40
2018-10-06T18:07:07.299Z,14.33
2018-10-06T18:09:35.529Z,21.07
2018-10-06T18:12:03.748Z,30.93
2018-10-06T18:14:32.074Z,29.50
2018-10-06T18:17:00.356Z,30.90
2018-10-06T18:19:28.654Z,21.20
2018-10-06T18:21:56.840Z,26.23
2018-10-06T18:24:25.228Z,22.27
2018-10-06T18:26:53.502Z,21.80
2018-10-06T18:29:21.776Z,21.40
2018-10-06T18:31:50.080Z,23.40
2018-10-06T18:34:18.289Z,19.30
2018-10-06T18:36:46.568Z,17.93
2018-10-06T18:39:14.838Z,19.93
2018-10-06T18:41:43.392Z,15.33
2018-10-06T18:44:11.832Z,12.03
2018-10-06T18:46:40.907Z,12.60
2018-10-06T18:49:09.163Z,13.40
2018-10-06T18:51:37.378Z,15.00
2018-10-06T18:54:05.603Z,13.70
2018-10-06T18:56:35.055Z,13.20
2018-10-06T18:59:03.356Z,12.70
2018-10-06T19:01:31.941Z,12.40
2018-10-06T19:04:00.649Z,13.40
2018-10-06T19:06:29.516Z,15.07
2018-10-06T19:08:58.217Z,13.47
2018-10-06T19:11:26.900Z,33.70
2018-10-06T19:13:55.481Z,15.93
2018-10-06T19:16:24.225Z,13.00
2018-10-06T19:18:53.066Z,12.30
2018-10-06T19:21:21.655Z,11.47
2018-10-06T19:23:51.064Z,12.07
2018-10-06T19:26:19.652Z,14.30
2018-10-06T19:28:48.500Z,13.17
2018-10-06T19:31:17.235Z,11.00
2018-10-06T19:33:46.643Z,13.20
2018-10-06T19:36:15.331Z,10.30
2018-10-06T19:38:44.022Z,13.57
2018-10-06T19:41:12.718Z,12.57
2018-10-06T19:43:41.300Z,11.03
2018-10-06T19:46:10.300Z,12.27
2018-10-06T19:48:39.087Z,10.70
2018-10-06T19:51:07.677Z,12.07
2018-10-06T19:53:36.378Z,12.20
2018-10-06T19:56:11.712Z,11.67
2018-10-06T19:58:41.086Z,10.90
2018-10-06T20:01:09.704Z,11.80
2018-10-06T20:03:38.444Z,9.37
2018-10-06T20:06:08.476Z,10.47
2018-10-06T20:08:38.436Z,10.93
2018-10-06T20:11:09.131Z,11.80
2018-10-06T20:13:38.287Z,12.87
2018-10-06T20:16:07.070Z,10.20
2018-10-06T20:18:35.861Z,9.50
2018-10-06T20:21:04.767Z,12.73
2018-10-06T20:23:33.643Z,10.47
2018-10-06T20:26:01.868Z,11.57
2018-10-06T20:28:30.208Z,10.83
2018-10-06T20:30:58.468Z,12.10
2018-10-06T20:33:26.654Z,10.67
2018-10-06T20:35:54.877Z,20.50
2018-10-06T20:38:23.046Z,18.10
2018-10-06T20:40:52.294Z,10.37
2018-10-06T20:43:20.488Z,12.50
2018-10-06T20:45:48.744Z,10.50
2018-10-06T20:48:17.429Z,11.47
2018-10-06T20:50:45.590Z,11.47
2018-10-06T20:53:14.460Z,11.10
2018-10-06T20:55:42.827Z,10.67
2018-10-06T20:58:11.192Z,11.67
2018-10-06T21:00:39.550Z,20.67
2018-10-06T21:03:07.875Z,19.27
2018-10-06T21:05:36.069Z,13.80
2018-10-06T21:08:04.303Z,12.57
2018-10-06T21:10:32.504Z,9.93
2018-10-06T21:13:00.696Z,10.40
2018-10-06T21:15:28.833Z,10.00
2018-10-06T21:17:57.019Z,10.93
2018-10-06T21:20:25.196Z,11.77
2018-10-06T21:22:53.449Z,10.63
2018-10-06T21:25:21.708Z,13.33
2018-10-06T21:27:49.953Z,11.47
2018-10-06T21:30:18.299Z,16.43
2018-10-06T21:32:46.536Z,11.57
2018-10-06T21:35:14.759Z,18.43
2018-10-06T21:37:42.913Z,13.83
2018-10-06T21:40:11.163Z,16.57
2018-10-06T21:42:39.475Z,17.73
2018-10-06T21:45:07.854Z,16.10
2018-10-06T21:47:36.052Z,13.13
2018-10-06T21:50:04.210Z,11.80
2018-10-06T21:52:32.604Z,13.30
2018-10-06T21:55:00.820Z,15.03
2018-10-06T21:57:29.026Z,11.73
2018-10-06T21:59:57.276Z,10.60
2018-10-06T22:02:25.418Z,12.17
2018-10-06T22:04:53.674Z,11.53
2018-10-06T22:07:22.192Z,11.07
2018-10-06T22:09:50.394Z,11.03
2018-10-06T22:12:18.640Z,10.93
2018-10-06T22:14:46.845Z,10.63
2018-10-06T22:17:15.094Z,10.10
2018-10-06T22:19:43.357Z,11.47
2018-10-06T22:22:11.521Z,11.33
2018-10-06T22:24:39.789Z,11.00
2018-10-06T22:27:08.067Z,11.40
2018-10-06T22:29:36.238Z,11.20
2018-10-06T22:32:04.444Z,10.60
2018-10-06T22:34:32.666Z,12.20
2018-10-06T22:37:01.058Z,10.00
2018-10-06T22:39:29.404Z,9.60
2018-10-06T22:41:57.668Z,11.00
2018-10-06T22:44:25.853Z,10.53
2018-10-06T22:46:54.075Z,10.90
2018-10-06T22:49:22.286Z,10.83
2018-10-06T22:51:50.442Z,10.40
2018-10-06T22:54:18.669Z,11.10
2018-10-06T22:56:46.868Z,10.60
2018-10-06T22:59:15.079Z,11.50
2018-10-06T23:01:43.264Z,10.70
2018-10-06T23:04:11.469Z,10.90
2018-10-06T23:06:39.608Z,11.20
2018-10-06T23:09:09.519Z,11.37
2018-10-06T23:11:37.665Z,11.50
2018-10-06T23:14:06.133Z,11.67
2018-10-06T23:16:34.861Z,12.70
2018-10-06T23:19:03.587Z,11.87
2018-10-06T23:21:31.975Z,12.07
2018-10-06T23:24:00.755Z,11.13
2018-10-06T23:26:28.965Z,11.93
2018-10-06T23:28:57.163Z,12.50
2018-10-06T23:31:25.310Z,13.30
2018-10-06T23:33:53.418Z,12.47
2018-10-06T23:36:21.597Z,11.23
2018-10-06T23:38:49.733Z,12.20
2018-10-06T23:41:17.871Z,12.40
2018-10-06T23:43:45.980Z,14.47
2018-10-06T23:46:14.146Z,14.77
2018-10-06T23:48:42.257Z,15.87
2018-10-06T23:51:10.630Z,13.80
2018-10-06T23:53:38.810Z,11.37
2018-10-06T23:56:07.042Z,9.93
2018-10-06T23:58:35.256Z,11.87
